Salt Lake City, Utah
Current Conditions -  °F | °C
As of 8:53 PM on Wednesday 17 Dec 2014 (Local Time) from KSLC Reporting Station
Overcast Overcast  
Wind Chill: 34°   Ceiling: 7000
Heat Index: 34°   Visibility: 10mi
Dew Point: 31°   Wind: 3mph
Humidity: 89%   Direction: 30°NNE
Pressure: 30.05"   Gusts: NA
Location:  40.76°N, 111.88°W
Report Text: KSLC 180353Z 03003KT 10SM FEW060 BKN070 OVC120 01/M01 A3005 RMK AO2 SLP187 SH DSNT W T00111006 $
Loading
Personal Weather Stations






























Interactive Weather Map New forecast layout! Learn more

10-Day Weather Forecast

Advertisements
Track Severe Weather on mobile